createdAt,value
2018-12-19T00:00:07.268Z,5.80
2018-12-19T00:01:07.276Z,5.90
2018-12-19T00:02:07.270Z,5.70
2018-12-19T00:03:07.278Z,6.40
2018-12-19T00:04:07.297Z,6.70
2018-12-19T00:05:07.313Z,6.50
2018-12-19T00:06:07.345Z,6.30
2018-12-19T00:07:07.341Z,6.00
2018-12-19T00:08:07.354Z,5.90
2018-12-19T00:09:07.374Z,5.20
2018-12-19T00:10:07.395Z,6.20
2018-12-19T00:11:07.397Z,6.30
2018-12-19T00:12:07.425Z,6.10
2018-12-19T00:13:07.427Z,6.30
2018-12-19T00:14:07.444Z,6.00
2018-12-19T00:15:07.460Z,6.60
2018-12-19T00:16:07.464Z,5.90
2018-12-19T00:17:07.483Z,6.40
2018-12-19T00:18:07.493Z,6.50
2018-12-19T00:19:07.511Z,6.30
2018-12-19T00:20:07.528Z,6.40
2018-12-19T00:21:07.546Z,6.10
2018-12-19T00:22:07.567Z,6.00
2018-12-19T00:23:07.582Z,6.00
2018-12-19T00:24:07.586Z,6.60
2018-12-19T00:25:07.620Z,6.50
2018-12-19T00:26:07.618Z,6.50
2018-12-19T00:27:07.625Z,6.50
2018-12-19T00:28:07.640Z,6.30
2018-12-19T00:29:07.656Z,6.60
2018-12-19T00:30:07.705Z,6.60
2018-12-19T00:31:07.687Z,6.60
2018-12-19T00:32:07.716Z,6.80
2018-12-19T00:33:07.730Z,7.20
2018-12-19T00:34:07.740Z,6.50
2018-12-19T00:35:07.782Z,6.60
2018-12-19T00:36:07.774Z,6.70
2018-12-19T00:37:07.812Z,6.40
2018-12-19T00:38:07.795Z,6.30
2018-12-19T00:39:09.624Z,6.60
2018-12-19T00:40:07.819Z,6.20
2018-12-19T00:41:07.829Z,6.60
2018-12-19T00:42:07.865Z,6.70
2018-12-19T00:43:07.890Z,7.00
2018-12-19T00:44:07.878Z,6.30
2018-12-19T00:45:07.897Z,7.20
2018-12-19T00:46:07.942Z,6.90
2018-12-19T00:47:07.926Z,6.80
2018-12-19T00:48:07.951Z,6.80
2018-12-19T00:49:07.952Z,6.80
2018-12-19T00:50:07.976Z,6.60
2018-12-19T00:51:07.986Z,6.70
2018-12-19T00:52:07.994Z,6.80
2018-12-19T00:53:08.019Z,6.50
2018-12-19T00:54:08.021Z,6.60
2018-12-19T00:55:08.040Z,6.20
2018-12-19T00:56:08.070Z,6.50
2018-12-19T00:57:08.062Z,7.00
2018-12-19T00:58:08.077Z,6.40
2018-12-19T00:59:08.131Z,6.70
2018-12-19T01:00:08.122Z,6.40
2018-12-19T01:01:08.131Z,6.40
2018-12-19T01:02:08.136Z,6.70
2018-12-19T01:03:08.154Z,6.20
2018-12-19T01:04:08.168Z,7.30
2018-12-19T01:05:08.175Z,6.60
2018-12-19T01:06:08.390Z,6.40
2018-12-19T01:07:08.215Z,6.70
2018-12-19T01:08:08.235Z,6.80
2018-12-19T01:09:08.235Z,6.70
2018-12-19T01:10:08.349Z,6.90
2018-12-19T01:11:08.289Z,6.90
2018-12-19T01:12:08.289Z,6.70
2018-12-19T01:13:08.300Z,6.30
2018-12-19T01:14:08.315Z,6.30
2018-12-19T01:15:08.338Z,6.40
2018-12-19T01:16:08.349Z,7.10
2018-12-19T01:17:08.351Z,6.80
2018-12-19T01:18:08.364Z,6.60
2018-12-19T01:19:08.401Z,6.90
2018-12-19T01:20:08.398Z,7.10
2018-12-19T01:21:08.433Z,6.90
2018-12-19T01:22:08.424Z,6.20
2018-12-19T01:23:08.437Z,6.60
2018-12-19T01:24:08.460Z,6.80
2018-12-19T01:25:08.472Z,6.50
2018-12-19T01:26:08.481Z,6.20
2018-12-19T01:27:08.519Z,6.70
2018-12-19T01:28:08.546Z,6.30
2018-12-19T01:29:08.538Z,6.60
2018-12-19T01:30:08.550Z,6.60
2018-12-19T01:31:08.605Z,6.30
2018-12-19T01:32:08.584Z,6.40
2018-12-19T01:33:08.590Z,6.60
2018-12-19T01:34:08.620Z,6.60
2018-12-19T01:35:08.605Z,6.50
2018-12-19T01:36:08.642Z,6.20
2018-12-19T01:37:08.650Z,6.60
2018-12-19T01:38:08.689Z,6.40
2018-12-19T01:39:08.681Z,7.10
2018-12-19T01:40:08.698Z,6.30
2018-12-19T01:41:08.707Z,6.40
2018-12-19T01:42:08.761Z,6.80
2018-12-19T01:43:08.726Z,6.20
2018-12-19T01:44:08.737Z,6.70
2018-12-19T01:45:08.804Z,6.70
2018-12-19T01:46:08.797Z,6.30
2018-12-19T01:47:08.786Z,6.40
2018-12-19T01:48:08.802Z,6.50
2018-12-19T01:49:08.817Z,6.50
2018-12-19T01:50:08.835Z,6.60
2018-12-19T01:51:08.844Z,6.30
2018-12-19T01:52:08.879Z,6.50
2018-12-19T01:53:08.874Z,6.50
2018-12-19T01:54:08.900Z,6.50
2018-12-19T01:55:08.904Z,6.50
2018-12-19T01:56:08.912Z,6.70
2018-12-19T01:57:08.935Z,6.00
2018-12-19T01:58:08.943Z,6.90
2018-12-19T01:59:08.960Z,6.30
2018-12-19T02:00:08.973Z,7.00
2018-12-19T02:01:08.996Z,6.80
2018-12-19T02:02:09.040Z,6.40
2018-12-19T02:03:09.031Z,6.70
2018-12-19T02:04:09.028Z,6.50
2018-12-19T02:05:09.057Z,6.20
2018-12-19T02:06:09.077Z,6.20
2018-12-19T02:07:09.092Z,6.70
2018-12-19T02:08:09.086Z,6.30
2018-12-19T02:09:09.113Z,6.40
2018-12-19T02:10:09.124Z,6.10
2018-12-19T02:11:09.148Z,6.30
2018-12-19T02:12:09.144Z,6.80
2018-12-19T02:13:09.161Z,7.00
2018-12-19T02:14:09.195Z,6.70
2018-12-19T02:15:09.195Z,6.50
2018-12-19T02:16:09.220Z,6.80
2018-12-19T02:17:09.222Z,6.50
2018-12-19T02:18:09.266Z,6.10
2018-12-19T02:19:09.272Z,6.60
2018-12-19T02:20:09.273Z,6.50
2018-12-19T02:21:09.290Z,6.80
2018-12-19T02:22:09.293Z,6.50
2018-12-19T02:23:09.322Z,6.50
2018-12-19T02:24:09.331Z,6.60
2018-12-19T02:25:09.342Z,6.70
2018-12-19T02:26:09.389Z,6.60
2018-12-19T02:27:09.369Z,6.70
2018-12-19T02:28:09.388Z,6.40
2018-12-19T02:29:09.398Z,7.20
2018-12-19T02:30:09.420Z,6.70
2018-12-19T02:31:09.441Z,6.30
2018-12-19T02:32:09.444Z,6.70
2018-12-19T02:33:09.454Z,6.60
2018-12-19T02:34:09.469Z,6.50
2018-12-19T02:35:09.482Z,7.00
2018-12-19T02:36:09.500Z,6.80
2018-12-19T02:37:09.523Z,7.40
2018-12-19T02:38:09.523Z,6.90
2018-12-19T02:39:09.537Z,7.20
2018-12-19T02:40:09.552Z,7.30
2018-12-19T02:41:09.638Z,7.60
2018-12-19T02:42:09.596Z,7.20
2018-12-19T02:43:09.618Z,7.80
2018-12-19T02:44:09.634Z,7.20
2018-12-19T02:45:09.638Z,7.20
2018-12-19T02:46:09.654Z,7.00
2018-12-19T02:47:09.682Z,7.10
2018-12-19T02:48:09.685Z,7.50
2018-12-19T02:49:09.687Z,7.70
2018-12-19T02:50:09.698Z,7.20
2018-12-19T02:51:09.723Z,7.50
2018-12-19T02:52:09.725Z,7.50
2018-12-19T02:53:09.748Z,7.20
2018-12-19T02:54:09.763Z,7.90
2018-12-19T02:55:09.774Z,7.30
2018-12-19T02:56:09.812Z,7.00
2018-12-19T02:57:09.810Z,7.70
2018-12-19T02:58:09.817Z,7.10
2018-12-19T02:59:09.830Z,7.40
2018-12-19T03:00:09.842Z,7.40
2018-12-19T03:01:09.856Z,7.10
2018-12-19T03:02:09.872Z,7.00
2018-12-19T03:03:09.885Z,7.30
2018-12-19T03:04:09.907Z,7.10
2018-12-19T03:05:09.916Z,7.00
2018-12-19T03:06:09.931Z,7.00
2018-12-19T03:07:09.979Z,7.00
2018-12-19T03:08:09.975Z,7.50
2018-12-19T03:09:09.988Z,7.30
2018-12-19T03:10:09.995Z,7.40
2018-12-19T03:11:10.009Z,8.30
2018-12-19T03:12:10.018Z,7.70
2018-12-19T03:13:10.035Z,7.60
2018-12-19T03:14:10.073Z,7.40
2018-12-19T03:15:10.074Z,7.00
2018-12-19T03:16:10.098Z,7.50
2018-12-19T03:17:10.099Z,8.00
2018-12-19T03:18:10.114Z,7.50
2018-12-19T03:19:10.127Z,8.00
2018-12-19T03:20:10.141Z,7.70
2018-12-19T03:21:10.169Z,7.50
2018-12-19T03:22:10.169Z,7.30
2018-12-19T03:23:10.176Z,7.50
2018-12-19T03:24:10.191Z,7.50
2018-12-19T03:25:10.204Z,7.70
2018-12-19T03:26:10.230Z,8.00
2018-12-19T03:27:10.249Z,8.10
2018-12-19T03:28:10.256Z,7.90
2018-12-19T03:29:10.265Z,7.80
2018-12-19T03:30:10.287Z,8.20
2018-12-19T03:31:10.297Z,8.20
2018-12-19T03:32:10.319Z,8.10
2018-12-19T03:33:10.349Z,8.80
2018-12-19T03:34:10.349Z,8.80
2018-12-19T03:35:10.368Z,8.60
2018-12-19T03:36:10.371Z,8.90
2018-12-19T03:37:10.393Z,8.30
2018-12-19T03:38:10.414Z,8.10
2018-12-19T03:39:10.409Z,8.20
2018-12-19T03:40:10.516Z,8.20
2018-12-19T03:41:10.470Z,8.10
2018-12-19T03:42:10.464Z,8.60
2018-12-19T03:43:10.481Z,8.80
2018-12-19T03:44:10.497Z,8.50
2018-12-19T03:45:10.504Z,8.60
2018-12-19T03:46:10.513Z,8.10
2018-12-19T03:47:10.541Z,8.00
2018-12-19T03:48:10.568Z,9.60
2018-12-19T03:49:10.563Z,8.10
2018-12-19T03:50:10.572Z,8.60
2018-12-19T03:51:10.593Z,9.60
2018-12-19T03:52:10.610Z,8.50
2018-12-19T03:53:10.657Z,9.10
2018-12-19T03:54:10.658Z,9.60
2018-12-19T03:55:10.658Z,9.10
2018-12-19T03:56:10.675Z,8.50
2018-12-19T03:57:10.709Z,8.70
2018-12-19T03:58:10.698Z,8.70
2018-12-19T03:59:10.706Z,8.90
2018-12-19T04:00:10.721Z,8.50
2018-12-19T04:01:10.732Z,9.00
2018-12-19T04:02:10.760Z,8.40
2018-12-19T04:03:10.860Z,9.70
2018-12-19T04:04:10.786Z,8.70
2018-12-19T04:05:10.797Z,9.40
2018-12-19T04:06:10.818Z,9.30
2018-12-19T04:07:10.845Z,9.10
2018-12-19T04:08:10.834Z,9.00
2018-12-19T04:09:10.876Z,9.30
2018-12-19T04:10:10.877Z,9.40
2018-12-19T04:11:10.896Z,9.00
2018-12-19T04:12:10.904Z,9.20
2018-12-19T04:13:10.924Z,9.20
2018-12-19T04:14:10.925Z,9.40
2018-12-19T04:15:10.942Z,9.50
2018-12-19T04:16:10.964Z,9.60
2018-12-19T04:17:10.972Z,9.50
2018-12-19T04:18:10.988Z,9.10
2018-12-19T04:19:10.999Z,10.20
2018-12-19T04:20:11.011Z,9.80
2018-12-19T04:21:11.028Z,9.80
2018-12-19T04:22:11.048Z,9.90
2018-12-19T04:23:11.058Z,9.80
2018-12-19T04:24:11.080Z,9.40
2018-12-19T04:25:11.086Z,9.60
2018-12-19T04:26:11.200Z,9.90
2018-12-19T04:27:11.117Z,10.10
2018-12-19T04:28:11.147Z,10.20
2018-12-19T04:29:11.168Z,9.80
2018-12-19T04:30:11.164Z,10.20
2018-12-19T04:31:11.175Z,10.00
2018-12-19T04:32:11.204Z,10.40
2018-12-19T04:33:11.213Z,10.90
2018-12-19T04:34:11.227Z,10.40
2018-12-19T04:35:11.252Z,10.20
2018-12-19T04:36:11.264Z,10.20
2018-12-19T04:37:11.304Z,11.00
2018-12-19T04:38:11.286Z,10.60
2018-12-19T04:39:11.302Z,10.90
2018-12-19T04:40:11.315Z,10.30
2018-12-19T04:41:11.327Z,10.20
2018-12-19T04:42:11.337Z,10.80
2018-12-19T04:43:11.360Z,10.20
2018-12-19T04:44:11.380Z,10.60
2018-12-19T04:45:11.389Z,10.70
2018-12-19T04:46:11.398Z,9.50
2018-12-19T04:47:11.416Z,10.70
2018-12-19T04:48:11.451Z,10.40
2018-12-19T04:49:11.457Z,10.50
2018-12-19T04:50:11.459Z,10.90
2018-12-19T04:51:11.487Z,10.30
2018-12-19T04:52:11.485Z,10.40
2018-12-19T04:53:11.504Z,10.60
2018-12-19T04:54:11.510Z,10.80
2018-12-19T04:55:11.533Z,11.30
2018-12-19T04:56:11.546Z,11.30
2018-12-19T04:57:11.581Z,11.30
2018-12-19T04:58:11.603Z,10.50
2018-12-19T04:59:11.630Z,11.10
2018-12-19T05:00:11.623Z,11.60
2018-12-19T05:01:11.633Z,11.20
2018-12-19T05:02:11.629Z,11.20
2018-12-19T05:03:11.646Z,11.20
2018-12-19T05:04:11.665Z,11.30
2018-12-19T05:05:11.738Z,11.30
2018-12-19T05:06:11.721Z,10.50
2018-12-19T05:07:11.706Z,11.20
2018-12-19T05:08:11.723Z,11.80
2018-12-19T05:09:11.736Z,11.50
2018-12-19T05:10:12.443Z,11.80
2018-12-19T05:11:11.797Z,11.80
2018-12-19T05:12:11.792Z,11.90
2018-12-19T05:13:11.806Z,12.00
2018-12-19T05:14:11.831Z,11.60
2018-12-19T05:15:11.837Z,11.40
2018-12-19T05:16:11.842Z,11.80
2018-12-19T05:17:11.881Z,11.70
2018-12-19T05:18:11.871Z,11.40
2018-12-19T05:19:11.884Z,11.90
2018-12-19T05:20:11.902Z,11.30
2018-12-19T05:21:11.922Z,11.90
2018-12-19T05:22:11.930Z,12.70
2018-12-19T05:23:11.958Z,12.40
2018-12-19T05:24:11.987Z,11.10
2018-12-19T05:25:12.109Z,12.30
2018-12-19T05:26:11.992Z,10.60
2018-12-19T05:27:12.026Z,11.60
2018-12-19T05:28:12.030Z,11.30
2018-12-19T05:29:12.047Z,11.50
2018-12-19T05:30:12.053Z,11.10
2018-12-19T05:31:12.083Z,11.90
2018-12-19T05:32:12.103Z,12.20
2018-12-19T05:33:12.107Z,11.50
2018-12-19T05:34:12.125Z,12.10
2018-12-19T05:35:12.147Z,12.00
2018-12-19T05:36:12.151Z,11.80
2018-12-19T05:37:12.165Z,11.90
2018-12-19T05:38:12.195Z,12.30
2018-12-19T05:39:12.196Z,12.30
2018-12-19T05:40:18.590Z,12.60
2018-12-19T05:41:12.223Z,12.90
2018-12-19T05:42:12.244Z,12.50
2018-12-19T05:43:12.248Z,12.20
2018-12-19T05:44:12.290Z,13.00
2018-12-19T05:45:12.313Z,12.80
2018-12-19T05:46:12.313Z,12.50
2018-12-19T05:47:12.350Z,12.30
2018-12-19T05:48:12.363Z,13.10
2018-12-19T05:49:12.344Z,12.70
2018-12-19T05:50:12.376Z,11.40
2018-12-19T05:51:12.381Z,12.30
2018-12-19T05:52:12.395Z,13.10
2018-12-19T05:53:12.402Z,13.50
2018-12-19T05:54:12.420Z,13.10
2018-12-19T05:55:12.437Z,12.90
2018-12-19T05:56:12.640Z,12.40
2018-12-19T05:57:12.502Z,13.10
2018-12-19T05:58:12.482Z,12.40
2018-12-19T05:59:12.719Z,12.00
2018-12-19T06:00:12.522Z,13.20
2018-12-19T06:01:12.524Z,12.90
2018-12-19T06:02:12.552Z,13.50
2018-12-19T06:03:12.673Z,12.80
2018-12-19T06:04:12.597Z,13.20
2018-12-19T06:05:12.589Z,12.70
2018-12-19T06:06:12.611Z,13.20
2018-12-19T06:07:12.622Z,12.50
2018-12-19T06:08:12.643Z,13.10
2018-12-19T06:09:12.651Z,12.90
2018-12-19T06:10:12.662Z,12.50
2018-12-19T06:11:12.699Z,13.00
2018-12-19T06:12:12.710Z,12.80
2018-12-19T06:13:12.716Z,12.20
2018-12-19T06:14:12.746Z,12.30
2018-12-19T06:15:12.737Z,12.50
2018-12-19T06:16:12.795Z,12.50
2018-12-19T06:17:12.796Z,13.70
2018-12-19T06:18:12.819Z,12.80
2018-12-19T06:19:12.797Z,12.20
2018-12-19T06:20:12.826Z,12.90
2018-12-19T06:21:12.893Z,13.00
2018-12-19T06:22:12.845Z,12.70
2018-12-19T06:23:12.864Z,12.70
2018-12-19T06:24:12.881Z,12.80
2018-12-19T06:25:12.899Z,13.20
2018-12-19T06:26:12.908Z,12.90
2018-12-19T06:27:12.925Z,13.50
2018-12-19T06:28:12.948Z,13.20
2018-12-19T06:29:12.968Z,13.50
2018-12-19T06:30:12.962Z,13.10
2018-12-19T06:31:13.002Z,13.80
2018-12-19T06:32:12.998Z,13.30
2018-12-19T06:33:13.027Z,13.40
2018-12-19T06:34:13.049Z,13.50
2018-12-19T06:35:13.043Z,13.20
2018-12-19T06:36:13.068Z,13.60
2018-12-19T06:37:13.069Z,13.50
2018-12-19T06:38:13.092Z,13.70
2018-12-19T06:39:13.103Z,14.20
2018-12-19T06:40:13.153Z,12.80
2018-12-19T06:41:13.136Z,13.40
2018-12-19T06:42:13.160Z,14.00
2018-12-19T06:43:13.167Z,13.60
2018-12-19T06:44:13.187Z,13.80
2018-12-19T06:45:13.204Z,13.50
2018-12-19T06:46:13.214Z,14.40
2018-12-19T06:47:13.242Z,13.30
2018-12-19T06:48:13.238Z,13.40
2018-12-19T06:49:13.271Z,13.70
2018-12-19T06:50:13.270Z,14.20
2018-12-19T06:51:13.282Z,14.60
2018-12-19T06:52:13.300Z,14.10
2018-12-19T06:53:13.312Z,14.20
2018-12-19T06:54:13.344Z,14.20
2018-12-19T06:55:13.376Z,15.00
2018-12-19T06:56:13.361Z,14.50
2018-12-19T06:57:13.384Z,14.60
2018-12-19T06:58:13.389Z,15.50
2018-12-19T06:59:13.407Z,13.90
2018-12-19T07:00:13.426Z,13.40
2018-12-19T07:01:13.436Z,13.70
2018-12-19T07:02:13.459Z,14.60
2018-12-19T07:03:13.470Z,13.90
2018-12-19T07:04:13.485Z,14.60
2018-12-19T07:05:13.502Z,14.20
2018-12-19T07:06:13.518Z,15.30
2018-12-19T07:07:13.539Z,14.60
2018-12-19T07:08:13.550Z,14.40
2018-12-19T07:09:13.567Z,13.90
2018-12-19T07:10:13.582Z,14.80
2018-12-19T07:11:13.596Z,14.80
2018-12-19T07:12:13.623Z,14.80
2018-12-19T07:13:13.627Z,15.70
2018-12-19T07:14:13.640Z,15.70
2018-12-19T07:15:13.654Z,16.00
2018-12-19T07:16:13.674Z,15.80
2018-12-19T07:17:13.690Z,15.70
2018-12-19T07:18:13.699Z,15.90
2018-12-19T07:19:13.716Z,15.30
2018-12-19T07:20:13.731Z,15.40
2018-12-19T07:21:13.743Z,15.60
2018-12-19T07:22:13.776Z,14.90
2018-12-19T07:23:13.829Z,15.90
2018-12-19T07:24:13.811Z,15.20
2018-12-19T07:25:13.816Z,16.50
2018-12-19T07:26:13.835Z,16.10
2018-12-19T07:27:13.840Z,15.40
2018-12-19T07:28:13.864Z,15.90
2018-12-19T07:29:13.875Z,15.90
2018-12-19T07:30:13.889Z,16.10
2018-12-19T07:31:13.915Z,15.40
2018-12-19T07:32:13.922Z,15.30
2018-12-19T07:33:13.937Z,16.80
2018-12-19T07:34:13.944Z,15.40
2018-12-19T07:35:13.970Z,16.10
2018-12-19T07:36:13.981Z,16.20
2018-12-19T07:37:13.997Z,15.40
2018-12-19T07:38:14.016Z,16.20
2018-12-19T07:39:14.025Z,16.60
2018-12-19T07:40:14.069Z,16.70
2018-12-19T07:41:14.058Z,16.80
2018-12-19T07:42:14.077Z,17.00
2018-12-19T07:43:14.101Z,17.80
2018-12-19T07:44:14.109Z,17.00
2018-12-19T07:45:14.117Z,18.50
2018-12-19T07:46:19.703Z,17.70
2018-12-19T07:47:14.145Z,18.00
2018-12-19T07:48:14.192Z,17.70
2018-12-19T07:49:14.174Z,17.70
2018-12-19T07:50:14.188Z,18.00
2018-12-19T07:51:14.212Z,18.70
2018-12-19T07:52:14.223Z,17.70
2018-12-19T07:53:14.237Z,16.70
2018-12-19T07:54:14.250Z,16.80
2018-12-19T07:55:14.271Z,17.20
2018-12-19T07:56:14.282Z,18.20
2018-12-19T07:57:14.306Z,18.00
2018-12-19T07:58:14.315Z,17.40
2018-12-19T07:59:14.329Z,19.00
2018-12-19T08:00:14.353Z,18.30
2018-12-19T08:01:14.372Z,19.30
2018-12-19T08:02:14.373Z,18.60
2018-12-19T08:03:14.394Z,19.20
2018-12-19T08:04:14.412Z,18.80
2018-12-19T08:05:14.433Z,18.80
2018-12-19T08:06:14.443Z,18.90
2018-12-19T08:07:14.453Z,19.00
2018-12-19T08:08:14.476Z,18.60
2018-12-19T08:09:14.493Z,18.80
2018-12-19T08:10:14.497Z,18.80
2018-12-19T08:11:14.517Z,19.10
2018-12-19T08:12:14.529Z,20.20
2018-12-19T08:13:14.578Z,18.70
2018-12-19T08:14:14.555Z,18.20
2018-12-19T08:15:14.573Z,20.10
2018-12-19T08:16:14.593Z,19.70
2018-12-19T08:17:14.605Z,18.50
2018-12-19T08:18:14.624Z,18.50
2018-12-19T08:19:14.632Z,19.40
2018-12-19T08:20:14.653Z,19.10
2018-12-19T08:21:14.665Z,19.10
2018-12-19T08:22:14.682Z,19.50
2018-12-19T08:23:14.706Z,20.10
2018-12-19T08:24:14.717Z,19.90
2018-12-19T08:25:14.732Z,19.30
2018-12-19T08:26:14.742Z,18.70
2018-12-19T08:27:14.763Z,19.20
2018-12-19T08:28:14.785Z,19.80
2018-12-19T08:29:14.790Z,18.40
2018-12-19T08:30:14.808Z,19.50
2018-12-19T08:31:14.819Z,18.60
2018-12-19T08:32:14.836Z,19.40
2018-12-19T08:33:14.853Z,20.30
2018-12-19T08:34:14.869Z,19.00
2018-12-19T08:35:14.888Z,20.20
2018-12-19T08:36:14.904Z,19.80
2018-12-19T08:37:14.909Z,19.90
2018-12-19T08:38:14.945Z,19.90
2018-12-19T08:39:14.954Z,19.00
2018-12-19T08:40:14.971Z,19.90
2018-12-19T08:41:14.973Z,20.00
2018-12-19T08:42:14.994Z,19.90
2018-12-19T08:43:15.002Z,19.90
2018-12-19T08:44:15.021Z,20.60
2018-12-19T08:45:15.041Z,19.10
2018-12-19T08:46:15.057Z,18.80
2018-12-19T08:47:15.062Z,19.00
2018-12-19T08:48:15.078Z,20.60
2018-12-19T08:49:15.097Z,18.90
2018-12-19T08:50:15.126Z,19.70
2018-12-19T08:51:15.203Z,19.40
2018-12-19T08:52:15.141Z,19.80
2018-12-19T08:53:15.155Z,19.50
2018-12-19T08:54:15.191Z,19.40
2018-12-19T08:55:15.199Z,18.40
2018-12-19T08:56:15.218Z,19.00
2018-12-19T08:57:15.224Z,19.10
2018-12-19T08:58:15.238Z,19.60
2018-12-19T08:59:15.252Z,19.70
2018-12-19T09:00:15.276Z,19.50
2018-12-19T09:01:15.294Z,18.90
2018-12-19T09:02:15.299Z,19.30
2018-12-19T09:03:15.314Z,20.00
2018-12-19T09:04:15.327Z,20.40
2018-12-19T09:05:15.351Z,19.90
2018-12-19T09:06:15.388Z,18.40
2018-12-19T09:07:15.376Z,18.10
2018-12-19T09:08:15.395Z,19.30
2018-12-19T09:09:15.408Z,18.80
2018-12-19T09:10:15.421Z,18.70
2018-12-19T09:11:15.436Z,19.00
2018-12-19T09:12:15.455Z,19.50
2018-12-19T09:13:15.598Z,20.30
2018-12-19T09:14:15.484Z,19.50
2018-12-19T09:15:15.499Z,20.60
2018-12-19T09:16:15.518Z,17.90
2018-12-19T09:17:15.530Z,18.60
2018-12-19T09:18:15.548Z,19.60
2018-12-19T09:19:15.565Z,18.60
2018-12-19T09:20:15.579Z,18.30
2018-12-19T09:21:15.610Z,18.50
2018-12-19T09:22:15.615Z,19.00
2018-12-19T09:23:15.646Z,19.10
2018-12-19T09:24:15.661Z,18.70
2018-12-19T09:25:15.664Z,19.00
2018-12-19T09:26:15.678Z,20.10
2018-12-19T09:27:15.696Z,19.00
2018-12-19T09:28:15.708Z,19.20
2018-12-19T09:29:15.729Z,19.00
2018-12-19T09:30:15.744Z,18.00
2018-12-19T09:31:15.781Z,18.50
2018-12-19T09:32:15.773Z,18.90
2018-12-19T09:33:15.784Z,18.30
2018-12-19T09:34:15.805Z,18.70
2018-12-19T09:35:15.830Z,18.60
2018-12-19T09:36:15.833Z,19.30
2018-12-19T09:37:15.851Z,18.90
2018-12-19T09:38:15.901Z,17.70
2018-12-19T09:39:15.899Z,17.90
2018-12-19T09:40:15.906Z,19.00
2018-12-19T09:41:15.915Z,19.00
2018-12-19T09:42:15.933Z,18.70
2018-12-19T09:43:15.951Z,18.50
2018-12-19T09:44:15.965Z,19.30
2018-12-19T09:45:15.974Z,18.40
2018-12-19T09:46:15.994Z,18.50
2018-12-19T09:47:16.005Z,18.20
2018-12-19T09:48:16.027Z,18.70
2018-12-19T09:49:16.064Z,19.30
2018-12-19T09:50:16.058Z,19.40
2018-12-19T09:51:16.078Z,19.00
2018-12-19T09:52:16.095Z,19.70
2018-12-19T09:53:16.108Z,18.90
2018-12-19T09:54:16.114Z,20.20
2018-12-19T09:55:16.138Z,19.60
2018-12-19T09:56:16.148Z,19.50
2018-12-19T09:57:16.164Z,18.40
2018-12-19T09:58:16.178Z,19.60
2018-12-19T09:59:16.191Z,19.90
2018-12-19T10:00:16.215Z,19.50
2018-12-19T10:01:16.233Z,19.60
2018-12-19T10:02:16.263Z,19.20
2018-12-19T10:03:16.256Z,19.20
2018-12-19T10:04:16.283Z,18.70
2018-12-19T10:05:16.293Z,19.20
2018-12-19T10:06:16.361Z,20.20
2018-12-19T10:07:16.324Z,18.50
2018-12-19T10:08:16.366Z,19.30
2018-12-19T10:09:16.360Z,20.10
2018-12-19T10:10:16.374Z,18.40
2018-12-19T10:11:18.852Z,18.90
2018-12-19T10:12:16.414Z,18.50
2018-12-19T10:13:16.419Z,18.60
2018-12-19T10:14:16.439Z,19.30
2018-12-19T10:15:16.459Z,19.20
2018-12-19T10:16:16.465Z,18.90
2018-12-19T10:17:16.494Z,18.20
2018-12-19T10:18:16.519Z,19.50
2018-12-19T10:19:16.521Z,18.50
2018-12-19T10:20:16.532Z,18.60
2018-12-19T10:21:16.555Z,18.90
2018-12-19T10:22:16.573Z,19.00
2018-12-19T10:23:16.584Z,19.20
2018-12-19T10:24:16.597Z,19.00
2018-12-19T10:25:16.619Z,18.80
2018-12-19T10:26:16.657Z,19.20
2018-12-19T10:27:16.649Z,18.50
2018-12-19T10:28:16.676Z,18.80
2018-12-19T10:29:16.674Z,18.60
2018-12-19T10:30:16.716Z,18.90
2018-12-19T10:31:16.713Z,18.60
2018-12-19T10:32:16.728Z,18.90
2018-12-19T10:33:16.751Z,19.10
2018-12-19T10:34:16.760Z,18.40
2018-12-19T10:35:16.773Z,19.70
2018-12-19T10:36:16.796Z,19.50
2018-12-19T10:37:16.806Z,18.40
2018-12-19T10:38:16.841Z,19.20
2018-12-19T10:39:16.835Z,19.70
2018-12-19T10:40:16.853Z,19.00
2018-12-19T10:41:16.885Z,18.30
2018-12-19T10:42:16.896Z,18.40
2018-12-19T10:43:16.903Z,20.40
2018-12-19T10:44:16.918Z,37.10
2018-12-19T10:45:16.942Z,25.50
2018-12-19T10:46:16.973Z,19.70
2018-12-19T10:47:17.101Z,19.30
2018-12-19T10:48:16.986Z,18.80
2018-12-19T10:49:17.009Z,19.90
2018-12-19T10:50:17.020Z,19.30
2018-12-19T10:51:17.041Z,19.30
2018-12-19T10:52:17.056Z,19.30
2018-12-19T10:53:17.071Z,18.50
2018-12-19T10:54:17.086Z,19.90
2018-12-19T10:55:17.104Z,20.10
2018-12-19T10:56:17.176Z,19.20
2018-12-19T10:57:17.135Z,19.40
2018-12-19T10:58:17.146Z,20.10
2018-12-19T10:59:17.168Z,18.10
2018-12-19T11:00:17.180Z,19.70
2018-12-19T11:01:17.212Z,19.90
2018-12-19T11:02:17.232Z,19.60
2018-12-19T11:03:17.233Z,18.90
2018-12-19T11:04:17.258Z,18.90
2018-12-19T11:05:17.266Z,20.00
2018-12-19T11:06:17.340Z,18.60
2018-12-19T11:07:17.296Z,19.10
2018-12-19T11:08:17.326Z,19.00
2018-12-19T11:09:17.341Z,18.30
2018-12-19T11:10:17.347Z,18.20
2018-12-19T11:11:17.375Z,20.30
2018-12-19T11:12:17.398Z,19.90
2018-12-19T11:13:17.411Z,20.40
2018-12-19T11:14:17.415Z,19.90
2018-12-19T11:15:17.440Z,19.30
2018-12-19T11:16:17.453Z,19.50
2018-12-19T11:17:17.466Z,19.90
2018-12-19T11:18:17.486Z,19.70
2018-12-19T11:19:17.498Z,19.70
2018-12-19T11:20:17.517Z,20.20
2018-12-19T11:21:17.534Z,17.70
2018-12-19T11:22:17.550Z,19.20
2018-12-19T11:23:17.566Z,19.30
2018-12-19T11:24:17.578Z,18.30
2018-12-19T11:25:17.611Z,19.20
2018-12-19T11:26:17.617Z,17.60
2018-12-19T11:27:17.635Z,18.40
2018-12-19T11:28:17.648Z,19.10
2018-12-19T11:29:17.684Z,17.90
2018-12-19T11:30:17.694Z,17.50
2018-12-19T11:31:17.707Z,18.20
2018-12-19T11:32:17.724Z,19.20
2018-12-19T11:33:17.731Z,18.60
2018-12-19T11:34:17.750Z,18.80
2018-12-19T11:35:17.770Z,18.10
2018-12-19T11:36:17.820Z,18.20
2018-12-19T11:37:17.801Z,18.50
2018-12-19T11:38:17.819Z,18.00
2018-12-19T11:39:17.847Z,17.50
2018-12-19T11:40:17.891Z,18.50
2018-12-19T11:41:17.928Z,18.00
2018-12-19T11:42:17.889Z,17.90
2018-12-19T11:43:17.913Z,17.20
2018-12-19T11:44:17.918Z,18.00
2018-12-19T11:45:17.935Z,17.90
2018-12-19T11:46:17.959Z,17.60
2018-12-19T11:47:17.976Z,17.60
2018-12-19T11:48:17.990Z,17.80
2018-12-19T11:49:18.007Z,18.80
2018-12-19T11:50:18.022Z,18.10
2018-12-19T11:51:18.038Z,17.70
2018-12-19T11:52:18.063Z,17.50
2018-12-19T11:53:18.073Z,17.20
2018-12-19T11:54:18.092Z,17.30
2018-12-19T11:55:18.111Z,17.80
2018-12-19T11:56:18.128Z,17.30
2018-12-19T11:57:18.141Z,17.50
2018-12-19T11:58:18.155Z,17.70
2018-12-19T11:59:18.183Z,17.50
2018-12-19T12:00:18.191Z,17.00
2018-12-19T12:01:18.213Z,17.90
2018-12-19T12:02:18.226Z,18.20
2018-12-19T12:03:18.245Z,18.40
2018-12-19T12:04:18.260Z,17.50
2018-12-19T12:05:18.276Z,17.50
2018-12-19T12:06:18.316Z,17.30
2018-12-19T12:07:18.316Z,17.50
2018-12-19T12:08:18.326Z,17.40
2018-12-19T12:09:18.357Z,16.60
2018-12-19T12:10:18.358Z,17.40
2018-12-19T12:11:18.377Z,17.90
2018-12-19T12:12:18.403Z,17.80
2018-12-19T12:13:18.415Z,18.00
2018-12-19T12:14:18.427Z,17.80
2018-12-19T12:15:18.446Z,17.50
2018-12-19T12:16:18.482Z,17.90
2018-12-19T12:17:18.479Z,17.80
2018-12-19T12:18:18.501Z,17.30
2018-12-19T12:19:18.546Z,17.70
2018-12-19T12:20:18.533Z,17.40
2018-12-19T12:21:18.555Z,17.70
2018-12-19T12:22:18.568Z,18.00
2018-12-19T12:23:18.584Z,17.80
2018-12-19T12:24:18.607Z,17.60
2018-12-19T12:25:18.620Z,16.80
2018-12-19T12:26:18.654Z,16.90
2018-12-19T12:27:18.650Z,17.60
2018-12-19T12:28:18.672Z,17.30
2018-12-19T12:29:18.687Z,16.70
2018-12-19T12:30:18.714Z,17.60
2018-12-19T12:31:18.730Z,17.90
2018-12-19T12:32:18.736Z,17.60
2018-12-19T12:33:18.758Z,17.20
2018-12-19T12:34:18.771Z,17.00
2018-12-19T12:35:18.789Z,17.00
2018-12-19T12:36:18.821Z,17.00
2018-12-19T12:37:18.825Z,16.40
2018-12-19T12:38:18.848Z,17.70
2018-12-19T12:39:18.865Z,16.50
2018-12-19T12:40:18.885Z,16.00
2018-12-19T12:41:18.922Z,16.70
2018-12-19T12:42:18.911Z,16.70
2018-12-19T12:43:18.928Z,17.30
2018-12-19T12:44:18.950Z,16.10
2018-12-19T12:45:18.972Z,16.40
2018-12-19T12:46:18.978Z,16.20
2018-12-19T12:47:19.026Z,16.10
2018-12-19T12:48:19.024Z,16.20
2018-12-19T12:49:19.050Z,16.80
2018-12-19T12:50:19.053Z,17.20
2018-12-19T12:51:19.065Z,15.90
2018-12-19T12:52:19.086Z,16.60
2018-12-19T12:53:19.101Z,16.00
2018-12-19T12:54:19.131Z,16.40
2018-12-19T12:55:19.151Z,16.50
2018-12-19T12:56:19.171Z,16.30
2018-12-19T12:57:19.173Z,15.10
2018-12-19T12:58:19.189Z,15.10
2018-12-19T12:59:19.213Z,15.40
2018-12-19T13:00:19.220Z,16.60
2018-12-19T13:01:19.253Z,16.30